sensor_id;sensor_type;location;lat;lon;timestamp;pressure;altitude;pressure_sealevel;temperature;humidity
77871;BME280;67067;46.850;7.578;2023-10-31T00:00:04;94141.00;;;8.92;50.73
77871;BME280;67067;46.850;7.578;2023-10-31T00:01:06;94145.69;;;9.05;50.31
77871;BME280;67067;46.850;7.578;2023-10-31T00:02:11;94146.25;;;9.02;50.05
77871;BME280;67067;46.850;7.578;2023-10-31T00:03:12;94146.78;;;8.94;50.30
77871;BME280;67067;46.850;7.578;2023-10-31T00:04:15;94145.19;;;9.03;50.26
77871;BME280;67067;46.850;7.578;2023-10-31T00:05:16;94144.91;;;9.05;50.08
77871;BME280;67067;46.850;7.578;2023-10-31T00:06:22;94143.06;;;9.00;50.23
77871;BME280;67067;46.850;7.578;2023-10-31T00:07:26;94154.69;;;8.94;50.29
77871;BME280;67067;46.850;7.578;2023-10-31T00:08:28;94152.31;;;8.92;50.29
77871;BME280;67067;46.850;7.578;2023-10-31T00:09:30;94153.63;;;9.00;49.82
77871;BME280;67067;46.850;7.578;2023-10-31T00:10:32;94148.06;;;9.02;50.11
77871;BME280;67067;46.850;7.578;2023-10-31T00:11:33;94157.34;;;8.94;50.05
77871;BME280;67067;46.850;7.578;2023-10-31T00:12:35;94157.34;;;8.99;49.84
77871;BME280;67067;46.850;7.578;2023-10-31T00:13:40;94152.03;;;9.04;49.81
77871;BME280;67067;46.850;7.578;2023-10-31T00:14:42;94161.28;;;9.02;50.27
77871;BME280;67067;46.850;7.578;2023-10-31T00:15:46;94153.38;;;8.97;49.61
77871;BME280;67067;46.850;7.578;2023-10-31T00:16:48;94161.28;;;8.97;49.38
77871;BME280;67067;46.850;7.578;2023-10-31T00:17:50;94151.25;;;8.93;49.45
77871;BME280;67067;46.850;7.578;2023-10-31T00:18:52;94158.66;;;8.97;50.00
77871;BME280;67067;46.850;7.578;2023-10-31T00:19:53;94162.09;;;8.92;49.14
77871;BME280;67067;46.850;7.578;2023-10-31T00:20:55;94160.78;;;8.84;49.08
77871;BME280;67067;46.850;7.578;2023-10-31T00:21:57;94155.78;;;8.88;49.20
77871;BME280;67067;46.850;7.578;2023-10-31T00:23:02;94154.97;;;8.87;49.12
77871;BME280;67067;46.850;7.578;2023-10-31T00:24:03;94158.41;;;8.83;49.39
77871;BME280;67067;46.850;7.578;2023-10-31T00:25:08;94155.25;;;8.91;49.48
77871;BME280;67067;46.850;7.578;2023-10-31T00:26:10;94152.31;;;8.92;49.49
77871;BME280;67067;46.850;7.578;2023-10-31T00:27:15;94151.53;;;8.92;49.43
77871;BME280;67067;46.850;7.578;2023-10-31T00:28:16;94151.03;;;8.54;48.80
77871;BME280;67067;46.850;7.578;2023-10-31T00:29:18;94143.63;;;8.87;49.10
77871;BME280;67067;46.850;7.578;2023-10-31T00:30:20;94149.44;;;8.84;49.63
77871;BME280;67067;46.850;7.578;2023-10-31T00:31:22;94154.72;;;8.84;49.58
77871;BME280;67067;46.850;7.578;2023-10-31T00:32:24;94156.03;;;8.76;49.25
77871;BME280;67067;46.850;7.578;2023-10-31T00:33:27;94161.06;;;8.83;48.99
77871;BME280;67067;46.850;7.578;2023-10-31T00:34:28;94165.28;;;8.73;49.50
77871;BME280;67067;46.850;7.578;2023-10-31T00:35:30;94159.72;;;8.80;49.44
77871;BME280;67067;46.850;7.578;2023-10-31T00:36:32;94167.91;;;8.73;49.22
77871;BME280;67067;46.850;7.578;2023-10-31T00:37:34;94160.00;;;8.84;49.22
77871;BME280;67067;46.850;7.578;2023-10-31T00:38:35;94157.34;;;8.89;49.16
77871;BME280;67067;46.850;7.578;2023-10-31T00:39:37;94148.66;;;8.83;49.18
77871;BME280;67067;46.850;7.578;2023-10-31T00:40:39;94151.53;;;8.92;48.70
77871;BME280;67067;46.850;7.578;2023-10-31T00:41:44;94160.53;;;8.91;48.91
77871;BME280;67067;46.850;7.578;2023-10-31T00:42:47;94164.47;;;8.83;49.18
77871;BME280;67067;46.850;7.578;2023-10-31T00:43:49;94151.81;;;8.75;49.58
77871;BME280;67067;46.850;7.578;2023-10-31T00:44:50;94165.53;;;8.87;49.07
77871;BME280;67067;46.850;7.578;2023-10-31T00:45:54;94165.56;;;8.67;49.26
77871;BME280;67067;46.850;7.578;2023-10-31T00:46:56;94163.69;;;8.72;49.14
77871;BME280;67067;46.850;7.578;2023-10-31T00:47:58;94168.44;;;8.70;49.43
77871;BME280;67067;46.850;7.578;2023-10-31T00:49:01;94156.03;;;8.81;49.29
77871;BME280;67067;46.850;7.578;2023-10-31T00:50:03;94162.13;;;8.82;49.19
77871;BME280;67067;46.850;7.578;2023-10-31T00:51:05;94173.22;;;8.78;49.40
77871;BME280;67067;46.850;7.578;2023-10-31T00:52:07;94168.47;;;8.75;49.22
77871;BME280;67067;46.850;7.578;2023-10-31T00:53:09;94157.91;;;8.60;49.73
77871;BME280;67067;46.850;7.578;2023-10-31T00:54:11;94164.50;;;8.68;49.35
77871;BME280;67067;46.850;7.578;2023-10-31T00:55:12;94167.38;;;8.61;49.52
77871;BME280;67067;46.850;7.578;2023-10-31T00:56:17;94170.56;;;8.68;49.63
77871;BME280;67067;46.850;7.578;2023-10-31T00:57:19;94174.25;;;8.77;49.70
77871;BME280;67067;46.850;7.578;2023-10-31T00:58:20;94169.50;;;8.59;49.85
77871;BME280;67067;46.850;7.578;2023-10-31T00:59:23;94175.31;;;8.66;49.51
77871;BME280;67067;46.850;7.578;2023-10-31T01:00:25;94177.69;;;8.73;49.49
77871;BME280;67067;46.850;7.578;2023-10-31T01:01:28;94173.97;;;8.79;48.85
77871;BME280;67067;46.850;7.578;2023-10-31T01:02:30;94188.75;;;8.75;49.14
77871;BME280;67067;46.850;7.578;2023-10-31T01:03:32;94175.31;;;8.66;49.26
77871;BME280;67067;46.850;7.578;2023-10-31T01:04:35;94180.88;;;8.49;49.13
77871;BME280;67067;46.850;7.578;2023-10-31T01:05:37;94190.59;;;8.59;49.26
77871;BME280;67067;46.850;7.578;2023-10-31T01:06:43;94185.84;;;8.66;48.95
77871;BME280;67067;46.850;7.578;2023-10-31T01:07:45;94188.75;;;8.75;48.60
77871;BME280;67067;46.850;7.578;2023-10-31T01:08:46;94191.66;;;8.53;48.79
77871;BME280;67067;46.850;7.578;2023-10-31T01:09:49;94197.75;;;8.58;49.27
77871;BME280;67067;46.850;7.578;2023-10-31T01:10:51;94193.50;;;8.78;48.54
77871;BME280;67067;46.850;7.578;2023-10-31T01:11:52;94191.94;;;8.77;48.77
77871;BME280;67067;46.850;7.578;2023-10-31T01:12:55;94187.97;;;8.74;48.97
77871;BME280;67067;46.850;7.578;2023-10-31T01:13:57;94194.56;;;8.87;48.84
77871;BME280;67067;46.850;7.578;2023-10-31T01:14:59;94200.88;;;8.86;48.98
77871;BME280;67067;46.850;7.578;2023-10-31T01:16:00;94189.28;;;8.82;48.93
77871;BME280;67067;46.850;7.578;2023-10-31T01:17:02;94196.94;;;8.84;49.10
77871;BME280;67067;46.850;7.578;2023-10-31T01:18:04;94199.03;;;8.92;48.64
77871;BME280;67067;46.850;7.578;2023-10-31T01:19:10;94184.53;;;8.89;48.72
77871;BME280;67067;46.850;7.578;2023-10-31T01:20:12;94193.22;;;8.95;48.80
77871;BME280;67067;46.850;7.578;2023-10-31T01:21:16;94187.66;;;8.97;49.05
77871;BME280;67067;46.850;7.578;2023-10-31T01:22:23;94177.13;;;8.97;48.98
77871;BME280;67067;46.850;7.578;2023-10-31T01:23:25;94194.00;;;8.96;48.93
77871;BME280;67067;46.850;7.578;2023-10-31T01:24:27;94190.63;;;8.79;48.81
77871;BME280;67067;46.850;7.578;2023-10-31T01:25:29;94186.91;;;8.91;48.94
77871;BME280;67067;46.850;7.578;2023-10-31T01:26:30;94188.50;;;8.76;49.26
77871;BME280;67067;46.850;7.578;2023-10-31T01:27:33;94186.63;;;8.87;48.74
77871;BME280;67067;46.850;7.578;2023-10-31T01:28:35;94187.94;;;8.95;48.10
77871;BME280;67067;46.850;7.578;2023-10-31T01:29:36;94195.06;;;8.89;48.42
77871;BME280;67067;46.850;7.578;2023-10-31T01:30:40;94188.50;;;8.92;48.26
77871;BME280;67067;46.850;7.578;2023-10-31T01:31:43;94197.72;;;8.94;47.33
77871;BME280;67067;46.850;7.578;2023-10-31T01:33:00;94195.59;;;8.91;47.44
77871;BME280;67067;46.850;7.578;2023-10-31T01:34:02;94194.28;;;8.94;47.31
77871;BME280;67067;46.850;7.578;2023-10-31T01:35:07;94188.47;;;8.97;47.21
77871;BME280;67067;46.850;7.578;2023-10-31T01:36:11;94196.94;;;8.89;47.54
77871;BME280;67067;46.850;7.578;2023-10-31T01:37:14;94195.88;;;8.95;47.41
77871;BME280;67067;46.850;7.578;2023-10-31T01:38:16;94197.97;;;8.93;47.25
77871;BME280;67067;46.850;7.578;2023-10-31T01:39:17;94199.06;;;8.82;47.82
77871;BME280;67067;46.850;7.578;2023-10-31T01:40:22;94208.00;;;8.91;47.68
77871;BME280;67067;46.850;7.578;2023-10-31T01:41:24;94203.28;;;8.88;47.46
77871;BME280;67067;46.850;7.578;2023-10-31T01:42:27;94205.91;;;8.83;47.82
77871;BME280;67067;46.850;7.578;2023-10-31T01:43:31;94203.50;;;8.91;47.85
77871;BME280;67067;46.850;7.578;2023-10-31T01:44:32;94205.09;;;8.92;47.99
77871;BME280;67067;46.850;7.578;2023-10-31T01:45:34;94203.53;;;8.81;48.14
77871;BME280;67067;46.850;7.578;2023-10-31T01:46:36;94213.28;;;8.91;48.40
77871;BME280;67067;46.850;7.578;2023-10-31T01:47:38;94214.88;;;8.97;47.78
77871;BME280;67067;46.850;7.578;2023-10-31T01:48:40;94215.41;;;8.94;47.60
77871;BME280;67067;46.850;7.578;2023-10-31T01:49:42;94219.09;;;8.93;47.77
77871;BME280;67067;46.850;7.578;2023-10-31T01:50:45;94214.59;;;8.93;47.08
77871;BME280;67067;46.850;7.578;2023-10-31T01:51:46;94218.06;;;8.78;47.65
77871;BME280;67067;46.850;7.578;2023-10-31T01:52:49;94214.59;;;8.88;47.79
77871;BME280;67067;46.850;7.578;2023-10-31T01:53:51;94225.97;;;8.94;47.64
77871;BME280;67067;46.850;7.578;2023-10-31T01:54:54;94215.66;;;8.92;47.87
77871;BME280;67067;46.850;7.578;2023-10-31T01:55:56;94216.47;;;8.93;47.78
77871;BME280;67067;46.850;7.578;2023-10-31T01:56:59;94225.44;;;8.97;47.66
77871;BME280;67067;46.850;7.578;2023-10-31T01:58:01;94227.03;;;8.83;47.42
77871;BME280;67067;46.850;7.578;2023-10-31T01:59:05;94228.31;;;8.90;47.34
77871;BME280;67067;46.850;7.578;2023-10-31T02:12:35;94233.59;;;9.11;46.85
77871;BME280;67067;46.850;7.578;2023-10-31T02:13:37;94247.06;;;9.10;47.09
77871;BME280;67067;46.850;7.578;2023-10-31T02:14:41;94242.28;;;9.17;46.88
77871;BME280;67067;46.850;7.578;2023-10-31T02:15:46;94253.66;;;9.17;46.81
77871;BME280;67067;46.850;7.578;2023-10-31T02:16:48;94253.13;;;9.20;46.68
77871;BME280;67067;46.850;7.578;2023-10-31T02:17:49;94254.72;;;9.11;46.93
77871;BME280;67067;46.850;7.578;2023-10-31T02:18:51;94247.56;;;9.17;46.89
77871;BME280;67067;46.850;7.578;2023-10-31T02:19:54;94258.13;;;9.17;46.44
77871;BME280;67067;46.850;7.578;2023-10-31T02:20:56;94259.97;;;9.21;46.20
77871;BME280;67067;46.850;7.578;2023-10-31T02:21:57;94259.19;;;9.21;46.11
77871;BME280;67067;46.850;7.578;2023-10-31T02:23:00;94259.44;;;9.25;46.13
77871;BME280;67067;46.850;7.578;2023-10-31T02:24:04;94268.16;;;9.25;46.14
77871;BME280;67067;46.850;7.578;2023-10-31T02:25:24;94259.19;;;9.21;46.16
77871;BME280;67067;46.850;7.578;2023-10-31T02:26:30;94256.28;;;9.22;46.13
77871;BME280;67067;46.850;7.578;2023-10-31T02:27:32;94266.56;;;9.24;45.69
77871;BME280;67067;46.850;7.578;2023-10-31T02:28:34;94276.06;;;9.20;46.26
77871;BME280;67067;46.850;7.578;2023-10-31T02:29:36;94258.41;;;9.20;46.16
77871;BME280;67067;46.850;7.578;2023-10-31T02:30:38;94260.78;;;8.70;47.11
77871;BME280;67067;46.850;7.578;2023-10-31T02:31:39;94266.06;;;8.81;46.88
77871;BME280;67067;46.850;7.578;2023-10-31T02:32:42;94272.66;;;8.99;46.67
77871;BME280;67067;46.850;7.578;2023-10-31T02:33:44;94282.44;;;9.03;46.52
77871;BME280;67067;46.850;7.578;2023-10-31T02:34:45;94276.09;;;9.04;46.72
77871;BME280;67067;46.850;7.578;2023-10-31T02:35:47;94266.31;;;9.05;46.55
77871;BME280;67067;46.850;7.578;2023-10-31T02:36:49;94268.72;;;8.96;46.40
77871;BME280;67067;46.850;7.578;2023-10-31T02:37:51;94280.84;;;8.97;46.00
77871;BME280;67067;46.850;7.578;2023-10-31T02:38:52;94268.72;;;8.91;45.90
77871;BME280;67067;46.850;7.578;2023-10-31T02:39:56;94270.28;;;8.97;46.19
77871;BME280;67067;46.850;7.578;2023-10-31T02:40:58;94274.50;;;8.98;46.05
77871;BME280;67067;46.850;7.578;2023-10-31T02:42:00;94274.00;;;8.91;46.19
77871;BME280;67067;46.850;7.578;2023-10-31T02:43:04;94268.97;;;9.00;45.72
77871;BME280;67067;46.850;7.578;2023-10-31T02:44:08;94268.72;;;8.96;46.06
77871;BME280;67067;46.850;7.578;2023-10-31T02:45:10;94273.72;;;8.98;45.86
77871;BME280;67067;46.850;7.578;2023-10-31T02:46:12;94266.59;;;8.98;46.42
77871;BME280;67067;46.850;7.578;2023-10-31T02:47:19;94274.00;;;8.96;46.58
77871;BME280;67067;46.850;7.578;2023-10-31T02:48:21;94276.09;;;8.94;46.57
77871;BME280;67067;46.850;7.578;2023-10-31T02:49:22;94266.84;;;8.86;46.50
77871;BME280;67067;46.850;7.578;2023-10-31T02:50:24;94262.38;;;8.92;46.18
77871;BME280;67067;46.850;7.578;2023-10-31T02:51:26;94266.31;;;8.94;45.95
77871;BME280;67067;46.850;7.578;2023-10-31T02:52:28;94268.44;;;8.82;46.06
77871;BME280;67067;46.850;7.578;2023-10-31T02:53:30;94266.59;;;8.88;45.87
77871;BME280;67067;46.850;7.578;2023-10-31T02:54:31;94265.03;;;8.87;45.68
77871;BME280;67067;46.850;7.578;2023-10-31T02:55:33;94261.31;;;8.88;45.59
77871;BME280;67067;46.850;7.578;2023-10-31T02:56:35;94265.53;;;8.89;45.42
77871;BME280;67067;46.850;7.578;2023-10-31T02:57:38;94262.63;;;8.85;45.79
77871;BME280;67067;46.850;7.578;2023-10-31T02:58:40;94258.94;;;8.81;45.37
77871;BME280;67067;46.850;7.578;2023-10-31T02:59:42;94258.66;;;8.72;45.80
77871;BME280;67067;46.850;7.578;2023-10-31T03:00:44;94247.06;;;8.78;46.07
77871;BME280;67067;46.850;7.578;2023-10-31T03:01:45;94256.03;;;8.67;46.58
77871;BME280;67067;46.850;7.578;2023-10-31T03:02:47;94264.50;;;8.79;46.40
77871;BME280;67067;46.850;7.578;2023-10-31T03:03:49;94265.56;;;8.78;46.69
77871;BME280;67067;46.850;7.578;2023-10-31T03:04:53;94258.16;;;8.81;45.73
77871;BME280;67067;46.850;7.578;2023-10-31T03:05:55;94264.50;;;8.79;45.76
77871;BME280;67067;46.850;7.578;2023-10-31T03:06:57;94266.56;;;8.72;46.36
77871;BME280;67067;46.850;7.578;2023-10-31T03:07:59;94261.28;;;8.46;45.33
77871;BME280;67067;46.850;7.578;2023-10-31T03:09:03;94265.78;;;8.67;45.53
77871;BME280;67067;46.850;7.578;2023-10-31T03:10:06;94276.59;;;8.70;45.41
77871;BME280;67067;46.850;7.578;2023-10-31T03:11:08;94278.19;;;8.71;45.88
77871;BME280;67067;46.850;7.578;2023-10-31T03:12:09;94278.44;;;8.54;46.06
77871;BME280;67067;46.850;7.578;2023-10-31T03:13:14;94277.94;;;8.62;45.78
77871;BME280;67067;46.850;7.578;2023-10-31T03:14:15;94290.06;;;8.69;45.77
77871;BME280;67067;46.850;7.578;2023-10-31T03:15:19;94280.56;;;8.73;45.88
77871;BME280;67067;46.850;7.578;2023-10-31T03:16:22;94276.88;;;8.69;46.05
77871;BME280;67067;46.850;7.578;2023-10-31T03:17:24;94280.28;;;8.69;46.01
77871;BME280;67067;46.850;7.578;2023-10-31T03:18:29;94281.34;;;8.68;46.26
77871;BME280;67067;46.850;7.578;2023-10-31T03:19:31;94283.44;;;8.66;46.47
77871;BME280;67067;46.850;7.578;2023-10-31T03:20:32;94285.03;;;8.52;46.54
77871;BME280;67067;46.850;7.578;2023-10-31T03:21:35;94285.31;;;8.60;46.11
77871;BME280;67067;46.850;7.578;2023-10-31T03:22:36;94283.72;;;8.49;46.16
77871;BME280;67067;46.850;7.578;2023-10-31T03:23:42;94290.06;;;8.58;45.88
77871;BME280;67067;46.850;7.578;2023-10-31T03:24:44;94286.63;;;8.63;45.64
77871;BME280;67067;46.850;7.578;2023-10-31T03:25:45;94292.41;;;8.49;45.96
77871;BME280;67067;46.850;7.578;2023-10-31T03:26:47;94287.94;;;8.60;45.67
77871;BME280;67067;46.850;7.578;2023-10-31T03:27:49;94287.94;;;8.50;45.83
77871;BME280;67067;46.850;7.578;2023-10-31T03:28:51;94274.75;;;8.60;45.82
77871;BME280;67067;46.850;7.578;2023-10-31T03:29:53;94274.22;;;8.63;45.64
77871;BME280;67067;46.850;7.578;2023-10-31T03:30:54;94267.38;;;8.62;45.29
77871;BME280;67067;46.850;7.578;2023-10-31T03:31:56;94268.16;;;8.63;45.37
77871;BME280;67067;46.850;7.578;2023-10-31T03:32:58;94271.59;;;8.53;45.44
77871;BME280;67067;46.850;7.578;2023-10-31T03:34:02;94275.00;;;8.59;45.40
77871;BME280;67067;46.850;7.578;2023-10-31T03:35:04;94271.84;;;8.62;45.71
77871;BME280;67067;46.850;7.578;2023-10-31T03:36:07;94274.22;;;8.58;45.95
77871;BME280;67067;46.850;7.578;2023-10-31T03:37:09;94268.44;;;8.56;46.33
77871;BME280;67067;46.850;7.578;2023-10-31T03:38:11;94275.25;;;8.42;46.57
77871;BME280;67067;46.850;7.578;2023-10-31T03:39:16;94276.56;;;8.49;46.59
77871;BME280;67067;46.850;7.578;2023-10-31T03:40:18;94271.81;;;8.46;46.54
77871;BME280;67067;46.850;7.578;2023-10-31T03:41:20;94277.09;;;8.46;46.42
77871;BME280;67067;46.850;7.578;2023-10-31T03:42:24;94272.88;;;8.45;46.63
77871;BME280;67067;46.850;7.578;2023-10-31T03:43:26;94271.53;;;8.32;46.58
77871;BME280;67067;46.850;7.578;2023-10-31T03:44:28;94268.13;;;8.47;46.27
77871;BME280;67067;46.850;7.578;2023-10-31T03:45:32;94279.22;;;8.49;45.98
77871;BME280;67067;46.850;7.578;2023-10-31T03:46:34;94284.50;;;8.49;46.21
77871;BME280;67067;46.850;7.578;2023-10-31T03:47:36;94283.72;;;8.49;46.43
77871;BME280;67067;46.850;7.578;2023-10-31T03:48:37;94285.56;;;8.54;46.50
77871;BME280;67067;46.850;7.578;2023-10-31T03:49:41;94286.06;;;8.40;46.62
77871;BME280;67067;46.850;7.578;2023-10-31T03:50:43;94285.28;;;8.50;46.39
77871;BME280;67067;46.850;7.578;2023-10-31T03:51:45;94280.56;;;8.52;46.32
77871;BME280;67067;46.850;7.578;2023-10-31T03:52:47;94266.84;;;8.50;46.00
77871;BME280;67067;46.850;7.578;2023-10-31T03:53:49;94280.56;;;8.52;46.23
77871;BME280;67067;46.850;7.578;2023-10-31T03:54:51;94278.16;;;8.40;46.82
77871;BME280;67067;46.850;7.578;2023-10-31T03:55:52;94277.38;;;8.50;46.34
77871;BME280;67067;46.850;7.578;2023-10-31T03:56:57;94274.47;;;8.52;46.41
77871;BME280;67067;46.850;7.578;2023-10-31T03:57:59;94276.88;;;8.53;46.39
77871;BME280;67067;46.850;7.578;2023-10-31T03:59:00;94274.47;;;8.41;46.46
77871;BME280;67067;46.850;7.578;2023-10-31T04:00:03;94273.41;;;8.53;46.13
77871;BME280;67067;46.850;7.578;2023-10-31T04:01:14;94277.91;;;8.57;45.95
77871;BME280;67067;46.850;7.578;2023-10-31T04:02:15;94281.63;;;8.56;46.19
77871;BME280;67067;46.850;7.578;2023-10-31T04:03:20;94281.09;;;8.59;45.90
77871;BME280;67067;46.850;7.578;2023-10-31T04:04:24;94287.66;;;8.62;45.56
77871;BME280;67067;46.850;7.578;2023-10-31T04:05:26;94282.66;;;8.50;46.00
77871;BME280;67067;46.850;7.578;2023-10-31T04:06:28;94281.88;;;8.60;45.92
77871;BME280;67067;46.850;7.578;2023-10-31T04:07:29;94280.03;;;8.60;45.83
77871;BME280;67067;46.850;7.578;2023-10-31T04:08:32;94276.59;;;8.60;45.83
77871;BME280;67067;46.850;7.578;2023-10-31T04:09:34;94273.44;;;8.63;46.11
77871;BME280;67067;46.850;7.578;2023-10-31T04:10:35;94275.28;;;8.62;46.42
77871;BME280;67067;46.850;7.578;2023-10-31T04:11:37;94275.81;;;8.49;46.56
77871;BME280;67067;46.850;7.578;2023-10-31T04:12:42;94276.88;;;8.58;46.26
77871;BME280;67067;46.850;7.578;2023-10-31T04:13:44;94275.00;;;8.59;46.39
77871;BME280;67067;46.850;7.578;2023-10-31T04:14:49;94272.13;;;8.55;46.42
77871;BME280;67067;46.850;7.578;2023-10-31T04:15:50;94283.97;;;8.58;46.41
77871;BME280;67067;46.850;7.578;2023-10-31T04:16:52;94278.44;;;8.44;46.97
77871;BME280;67067;46.850;7.578;2023-10-31T04:17:54;94275.53;;;8.50;47.09
77871;BME280;67067;46.850;7.578;2023-10-31T04:18:56;94278.16;;;8.50;47.19
77871;BME280;67067;46.850;7.578;2023-10-31T04:20:01;94293.44;;;8.48;47.58
77871;BME280;67067;46.850;7.578;2023-10-31T04:21:03;94285.00;;;8.46;47.43
77871;BME280;67067;46.850;7.578;2023-10-31T04:22:05;94287.94;;;8.45;47.63
77871;BME280;67067;46.850;7.578;2023-10-31T04:23:06;94288.38;;;8.26;48.34
77871;BME280;67067;46.850;7.578;2023-10-31T04:24:11;94285.50;;;8.33;48.09
77871;BME280;67067;46.850;7.578;2023-10-31T04:25:16;94292.63;;;8.32;48.17
77871;BME280;67067;46.850;7.578;2023-10-31T04:26:17;94291.31;;;8.35;47.92
77871;BME280;67067;46.850;7.578;2023-10-31T04:27:19;94282.84;;;8.23;48.06
77871;BME280;67067;46.850;7.578;2023-10-31T04:28:23;94288.91;;;8.23;48.28
77871;BME280;67067;46.850;7.578;2023-10-31T04:29:25;94279.94;;;8.29;48.35
77871;BME280;67067;46.850;7.578;2023-10-31T04:30:27;94290.22;;;8.20;48.28
77871;BME280;67067;46.850;7.578;2023-10-31T04:31:29;94292.91;;;8.31;48.19
77871;BME280;67067;46.850;7.578;2023-10-31T04:32:42;94290.50;;;8.34;47.79
77871;BME280;67067;46.850;7.578;2023-10-31T04:33:44;94293.97;;;8.40;47.66
77871;BME280;67067;46.850;7.578;2023-10-31T04:34:45;94295.56;;;8.41;46.99
77871;BME280;67067;46.850;7.578;2023-10-31T04:35:48;94291.34;;;8.45;46.78
77871;BME280;67067;46.850;7.578;2023-10-31T04:36:50;94292.91;;;8.46;46.83
77871;BME280;67067;46.850;7.578;2023-10-31T04:37:52;94290.56;;;8.45;47.53
77871;BME280;67067;46.850;7.578;2023-10-31T04:38:56;94292.91;;;8.46;47.28
77871;BME280;67067;46.850;7.578;2023-10-31T04:39:57;94294.19;;;8.33;47.62
77871;BME280;67067;46.850;7.578;2023-10-31T04:40:59;94295.56;;;8.46;47.38
77871;BME280;67067;46.850;7.578;2023-10-31T04:42:00;94295.00;;;8.34;47.76
77871;BME280;67067;46.850;7.578;2023-10-31T04:43:02;94291.63;;;8.44;47.55
77871;BME280;67067;46.850;7.578;2023-10-31T04:44:04;94293.97;;;8.50;47.40
77871;BME280;67067;46.850;7.578;2023-10-31T04:45:07;94290.03;;;8.48;46.93
77871;BME280;67067;46.850;7.578;2023-10-31T04:46:09;94283.97;;;8.53;46.28
77871;BME280;67067;46.850;7.578;2023-10-31T04:47:11;94281.84;;;8.49;46.35
77871;BME280;67067;46.850;7.578;2023-10-31T04:48:13;94289.22;;;8.47;46.42
77871;BME280;67067;46.850;7.578;2023-10-31T04:49:17;94283.72;;;8.49;46.03
77871;BME280;67067;46.850;7.578;2023-10-31T04:50:19;94285.03;;;8.52;45.92
77871;BME280;67067;46.850;7.578;2023-10-31T04:51:23;94284.50;;;8.55;45.93
77871;BME280;67067;46.850;7.578;2023-10-31T04:52:25;94281.84;;;8.39;45.99
77871;BME280;67067;46.850;7.578;2023-10-31T04:53:27;94281.31;;;8.53;45.80
77871;BME280;67067;46.850;7.578;2023-10-31T04:54:29;94286.59;;;8.42;46.31
77871;BME280;67067;46.850;7.578;2023-10-31T04:55:31;94281.84;;;8.44;46.58
77871;BME280;67067;46.850;7.578;2023-10-31T04:56:36;94282.91;;;8.43;46.54
77871;BME280;67067;46.850;7.578;2023-10-31T04:57:37;94286.59;;;8.47;46.90
77871;BME280;67067;46.850;7.578;2023-10-31T04:58:42;94282.91;;;8.48;46.52
77871;BME280;67067;46.850;7.578;2023-10-31T04:59:44;94276.56;;;8.49;46.72
77871;BME280;67067;46.850;7.578;2023-10-31T05:02:15;94282.19;;;7.95;47.75
77871;BME280;67067;46.850;7.578;2023-10-31T05:03:19;94283.69;;;7.75;48.35
77871;BME280;67067;46.850;7.578;2023-10-31T05:04:20;94279.44;;;7.69;48.73
77871;BME280;67067;46.850;7.578;2023-10-31T05:05:22;94284.25;;;7.82;48.61
77871;BME280;67067;46.850;7.578;2023-10-31T05:06:24;94281.13;;;7.90;48.77
77871;BME280;67067;46.850;7.578;2023-10-31T05:07:26;94280.03;;;7.86;48.71
77871;BME280;67067;46.850;7.578;2023-10-31T05:08:27;94275.88;;;7.96;48.66
77871;BME280;67067;46.850;7.578;2023-10-31T05:09:29;94281.38;;;7.84;49.07
77871;BME280;67067;46.850;7.578;2023-10-31T05:10:34;94277.44;;;7.97;48.45
77871;BME280;67067;46.850;7.578;2023-10-31T05:11:36;94281.69;;;8.03;48.82
77871;BME280;67067;46.850;7.578;2023-10-31T05:12:37;94289.03;;;7.96;48.43
77871;BME280;67067;46.850;7.578;2023-10-31T05:13:39;94282.75;;;8.07;48.16
77871;BME280;67067;46.850;7.578;2023-10-31T05:14:41;94274.09;;;8.17;48.37
77871;BME280;67067;46.850;7.578;2023-10-31T05:15:43;94275.16;;;8.16;48.69
77871;BME280;67067;46.850;7.578;2023-10-31T05:16:45;94285.38;;;8.07;48.89
77871;BME280;67067;46.850;7.578;2023-10-31T05:17:49;94281.75;;;8.18;48.76
77871;BME280;67067;46.850;7.578;2023-10-31T05:18:51;94280.41;;;8.11;48.79
77871;BME280;67067;46.850;7.578;2023-10-31T05:19:53;94272.84;;;8.25;48.69
77871;BME280;67067;46.850;7.578;2023-10-31T05:20:55;94272.03;;;8.24;48.76
77871;BME280;67067;46.850;7.578;2023-10-31T05:21:57;94276.78;;;8.22;48.79
77871;BME280;67067;46.850;7.578;2023-10-31T05:22:58;94271.19;;;8.13;49.03
77871;BME280;67067;46.850;7.578;2023-10-31T05:24:02;94271.25;;;8.24;48.65
77871;BME280;67067;46.850;7.578;2023-10-31T05:25:06;94271.50;;;8.22;49.22
77871;BME280;67067;46.850;7.578;2023-10-31T05:26:08;94275.47;;;8.25;49.13
77871;BME280;67067;46.850;7.578;2023-10-31T05:27:13;94267.81;;;8.23;49.50
77871;BME280;67067;46.850;7.578;2023-10-31T05:28:15;94268.63;;;8.24;49.62
77871;BME280;67067;46.850;7.578;2023-10-31T05:29:17;94275.09;;;8.00;50.33
77871;BME280;67067;46.850;7.578;2023-10-31T05:30:21;94266.44;;;8.10;50.11
77871;BME280;67067;46.850;7.578;2023-10-31T05:31:24;94274.63;;;8.14;49.87
77871;BME280;67067;46.850;7.578;2023-10-31T05:32:28;94275.94;;;8.11;50.49
77871;BME280;67067;46.850;7.578;2023-10-31T05:33:32;94274.06;;;8.06;50.71
77871;BME280;67067;46.850;7.578;2023-10-31T05:34:34;94283.03;;;8.05;51.17
77871;BME280;67067;46.850;7.578;2023-10-31T05:35:36;94282.16;;;7.89;51.22
77871;BME280;67067;46.850;7.578;2023-10-31T05:36:40;94283.81;;;8.06;50.73
77871;BME280;67067;46.850;7.578;2023-10-31T05:37:42;94284.09;;;8.10;50.77
77871;BME280;67067;46.850;7.578;2023-10-31T05:38:44;94284.38;;;8.13;50.56
77871;BME280;67067;46.850;7.578;2023-10-31T05:39:45;94284.06;;;7.99;50.89
77871;BME280;67067;46.850;7.578;2023-10-31T05:40:47;94280.16;;;8.12;50.55
77871;BME280;67067;46.850;7.578;2023-10-31T05:41:49;94275.97;;;8.16;50.58
77871;BME280;67067;46.850;7.578;2023-10-31T05:42:51;94280.63;;;8.04;50.50
77871;BME280;67067;46.850;7.578;2023-10-31T05:43:53;94280.69;;;8.14;50.09
77871;BME280;67067;46.850;7.578;2023-10-31T05:44:57;94277.00;;;8.15;50.29
77871;BME280;67067;46.850;7.578;2023-10-31T05:45:59;94281.75;;;8.13;50.50
77871;BME280;67067;46.850;7.578;2023-10-31T05:47:01;94282.53;;;8.14;50.61
77871;BME280;67067;46.850;7.578;2023-10-31T05:48:02;94284.38;;;8.13;50.52
77871;BME280;67067;46.850;7.578;2023-10-31T05:49:08;94289.13;;;8.11;50.77